createdAt,value
2022-11-23T00:02:16.367Z,7.40
2022-11-23T00:06:21.733Z,7.40
2022-11-23T00:10:25.340Z,7.40
2022-11-23T00:14:28.860Z,7.40
2022-11-23T00:18:32.386Z,7.40
2022-11-23T00:22:36.521Z,7.40
2022-11-23T00:26:40.026Z,7.40
2022-11-23T00:30:48.601Z,7.40
2022-11-23T00:34:52.198Z,7.40
2022-11-23T00:38:55.834Z,7.40
2022-11-23T00:42:59.322Z,7.40
2022-11-23T00:47:02.784Z,7.40
2022-11-23T00:51:08.469Z,7.30
2022-11-23T00:55:11.875Z,7.30
2022-11-23T00:59:15.397Z,7.40
2022-11-23T01:03:19.724Z,7.40
2022-11-23T01:07:23.251Z,7.40
2022-11-23T01:11:29.123Z,7.40
2022-11-23T01:15:32.758Z,7.30
2022-11-23T01:19:36.410Z,7.40
2022-11-23T01:23:41.611Z,7.40
2022-11-23T01:27:47.079Z,7.30
2022-11-23T01:31:50.487Z,7.30
2022-11-23T01:35:55.247Z,7.30
2022-11-23T01:39:58.763Z,7.30
2022-11-23T01:44:21.478Z,7.30
2022-11-23T01:48:54.918Z,7.30
2022-11-23T01:52:59.383Z,7.30
2022-11-23T01:57:09.991Z,7.30
2022-11-23T02:01:15.450Z,7.20
2022-11-23T02:05:21.963Z,7.20
2022-11-23T02:09:25.739Z,7.20
2022-11-23T02:13:29.987Z,7.20
2022-11-23T02:17:34.610Z,7.20
2022-11-23T02:21:38.364Z,7.10
2022-11-23T02:25:45.530Z,7.00
2022-11-23T02:29:51.101Z,7.00
2022-11-23T02:33:56.682Z,6.90
2022-11-23T02:38:02.793Z,6.90
2022-11-23T02:42:06.970Z,6.80
2022-11-23T02:46:11.147Z,6.80
2022-11-23T02:50:15.058Z,6.80
2022-11-23T02:54:20.341Z,6.70
2022-11-23T02:58:23.950Z,6.60
2022-11-23T03:02:27.870Z,6.60
2022-11-23T03:06:31.488Z,6.50
2022-11-23T03:10:35.540Z,6.40
2022-11-23T03:14:39.460Z,6.40
2022-11-23T03:18:43.577Z,6.30
2022-11-23T03:22:47.530Z,6.20
2022-11-23T03:26:53.459Z,6.10
2022-11-23T03:30:57.305Z,5.90
2022-11-23T03:35:02.974Z,5.90
2022-11-23T03:39:07.225Z,5.80
2022-11-23T03:43:38.370Z,5.70
2022-11-23T03:47:41.838Z,5.60
2022-11-23T03:51:45.314Z,5.40
2022-11-23T03:55:49.025Z,5.30
2022-11-23T03:59:53.752Z,5.20
2022-11-23T04:03:57.418Z,5.10
2022-11-23T04:08:29.884Z,4.90
2022-11-23T04:12:35.218Z,4.70
2022-11-23T04:16:38.913Z,4.60
2022-11-23T04:20:42.613Z,4.50
2022-11-23T04:24:46.477Z,4.30
2022-11-23T04:28:49.906Z,4.30
2022-11-23T04:32:54.275Z,4.20
2022-11-23T04:36:59.985Z,4.10
2022-11-23T04:41:08.887Z,4.00
2022-11-23T04:45:12.768Z,3.90
2022-11-23T04:49:17.355Z,3.80
2022-11-23T04:53:20.820Z,3.70
2022-11-23T04:57:24.466Z,3.70
2022-11-23T05:01:29.020Z,3.50
2022-11-23T05:05:52.999Z,3.40
2022-11-23T05:09:56.532Z,3.40
2022-11-23T05:14:00.219Z,3.40
2022-11-23T05:18:07.798Z,3.30
2022-11-23T05:22:12.664Z,3.20
2022-11-23T05:26:17.622Z,3.10
2022-11-23T05:30:21.622Z,3.00
2022-11-23T05:34:25.927Z,2.90
2022-11-23T05:38:29.456Z,2.80
2022-11-23T05:42:36.694Z,2.80
2022-11-23T05:46:47.620Z,2.80
2022-11-23T05:50:52.221Z,2.70
2022-11-23T05:55:05.274Z,2.70
2022-11-23T05:59:09.350Z,2.60
2022-11-23T06:03:16.925Z,2.50
2022-11-23T06:07:21.529Z,2.40
2022-11-23T06:11:37.417Z,2.30
2022-11-23T06:15:48.524Z,2.30
2022-11-23T06:19:58.275Z,2.20
2022-11-23T06:24:01.742Z,2.20
2022-11-23T06:28:08.452Z,2.10
2022-11-23T06:32:18.404Z,2.20
2022-11-23T06:36:22.021Z,2.20
2022-11-23T06:40:27.769Z,2.30
2022-11-23T06:44:31.882Z,2.40
2022-11-23T06:48:35.879Z,2.60
2022-11-23T06:52:40.326Z,2.70
2022-11-23T06:56:44.021Z,2.80
2022-11-23T07:00:48.321Z,3.00
2022-11-23T07:04:55.620Z,3.30
2022-11-23T07:08:59.109Z,3.50
2022-11-23T07:13:20.906Z,3.80
2022-11-23T07:17:25.409Z,4.00
2022-11-23T07:21:29.512Z,4.30
2022-11-23T07:25:36.829Z,4.50
2022-11-23T07:29:40.801Z,4.60
2022-11-23T07:33:45.940Z,4.70
2022-11-23T07:37:49.713Z,5.00
2022-11-23T07:42:05.242Z,5.10
2022-11-23T07:43:59.451Z,2.20
2022-11-23T07:46:16.723Z,5.30
2022-11-23T07:48:09.413Z,2.30
2022-11-23T07:50:20.200Z,5.40
2022-11-23T07:52:13.386Z,2.40
2022-11-23T07:54:23.993Z,5.50
2022-11-23T07:56:24.383Z,2.40
2022-11-23T07:58:27.633Z,5.80
2022-11-23T08:00:54.376Z,2.60
2022-11-23T08:02:31.253Z,6.20
2022-11-23T08:04:58.113Z,2.80
2022-11-23T08:06:34.827Z,6.60
2022-11-23T08:09:02.013Z,3.00
2022-11-23T08:10:44.159Z,6.80
2022-11-23T08:13:07.582Z,3.10
2022-11-23T08:14:52.549Z,7.10
2022-11-23T08:17:11.494Z,3.10
2022-11-23T08:18:55.966Z,7.20
2022-11-23T08:21:15.364Z,3.10
2022-11-23T08:22:59.617Z,7.40
2022-11-23T08:25:19.192Z,3.30
2022-11-23T08:27:04.605Z,8.00
2022-11-23T08:29:23.166Z,3.40
2022-11-23T08:31:11.633Z,8.60
2022-11-23T08:33:28.834Z,3.40
2022-11-23T08:35:15.445Z,9.10
2022-11-23T08:37:32.544Z,3.50
2022-11-23T08:39:19.674Z,9.30
2022-11-23T08:41:36.364Z,3.60
2022-11-23T08:43:23.100Z,9.40
2022-11-23T08:45:40.245Z,3.70
2022-11-23T08:47:27.478Z,9.80
2022-11-23T08:49:44.933Z,3.80
2022-11-23T08:51:30.960Z,10.50
2022-11-23T08:53:51.952Z,3.90
2022-11-23T08:55:34.671Z,11.30
2022-11-23T08:57:58.358Z,4.00
2022-11-23T08:59:38.214Z,12.10
2022-11-23T09:02:09.442Z,4.20
2022-11-23T09:03:42.922Z,12.30
2022-11-23T09:07:46.675Z,12.20
2022-11-23T09:11:50.236Z,12.80
2022-11-23T09:16:01.205Z,14.00
2022-11-23T09:20:05.258Z,15.00
2022-11-23T09:24:12.460Z,16.00
2022-11-23T09:28:16.850Z,16.80
2022-11-23T09:32:20.321Z,17.60
2022-11-23T09:36:23.813Z,18.30
2022-11-23T09:40:40.751Z,19.00
2022-11-23T09:45:04.099Z,19.20
2022-11-23T09:49:12.922Z,19.40
2022-11-23T09:53:21.567Z,19.60
2022-11-23T09:57:29.830Z,19.50
2022-11-23T10:01:33.515Z,19.80
2022-11-23T10:05:39.897Z,20.40
2022-11-23T10:10:06.171Z,20.80
2022-11-23T10:14:30.836Z,20.90
2022-11-23T10:18:48.874Z,21.20
2022-11-23T10:23:00.658Z,21.10
2022-11-23T10:27:14.034Z,21.30
2022-11-23T10:31:22.774Z,21.50
2022-11-23T10:35:33.063Z,21.50
2022-11-23T10:39:36.763Z,21.70
2022-11-23T10:44:07.726Z,21.70
2022-11-23T10:48:11.376Z,21.50
2022-11-23T10:52:31.843Z,21.20
2022-11-23T10:56:35.567Z,21.30
2022-11-23T11:00:39.199Z,21.50
2022-11-23T11:04:43.715Z,21.10
2022-11-23T11:08:55.035Z,20.90
2022-11-23T11:12:58.511Z,20.50
2022-11-23T11:17:02.057Z,20.50
2022-11-23T11:21:25.925Z,20.40
2022-11-23T11:25:36.585Z,20.20
2022-11-23T11:29:49.386Z,20.50
2022-11-23T11:34:36.061Z,20.70
2022-11-23T11:38:41.903Z,20.80
2022-11-23T11:42:58.255Z,21.00
2022-11-23T11:47:23.083Z,20.70
2022-11-23T11:51:40.681Z,20.00
2022-11-23T11:55:53.736Z,19.50
2022-11-23T11:59:58.528Z,19.60
2022-11-23T12:04:18.174Z,19.60
2022-11-23T12:08:40.986Z,19.90
2022-11-23T12:12:44.887Z,19.90
2022-11-23T12:17:37.701Z,19.90
2022-11-23T12:21:56.298Z,20.20
2022-11-23T12:26:17.853Z,20.50
2022-11-23T12:30:27.265Z,20.40
2022-11-23T12:34:42.726Z,20.10
2022-11-23T12:38:56.399Z,20.00
2022-11-23T12:43:06.861Z,20.10
2022-11-23T12:47:25.890Z,20.10
2022-11-23T12:51:46.330Z,19.90
2022-11-23T12:55:55.913Z,19.70
2022-11-23T13:00:21.002Z,19.60
2022-11-23T13:04:51.180Z,19.50
2022-11-23T13:09:18.666Z,19.40
2022-11-23T13:13:44.385Z,19.40
2022-11-23T13:18:28.137Z,19.30
2022-11-23T13:22:34.674Z,19.20
2022-11-23T13:26:40.610Z,19.10
2022-11-23T13:31:17.182Z,19.20
2022-11-23T13:35:31.698Z,19.20
2022-11-23T13:39:47.941Z,18.80
2022-11-23T13:43:52.493Z,18.60
2022-11-23T13:48:19.317Z,18.20
2022-11-23T13:52:37.815Z,18.00
2022-11-23T13:56:43.652Z,17.70
2022-11-23T14:00:58.104Z,17.70
2022-11-23T14:05:31.595Z,17.70
2022-11-23T14:09:55.288Z,17.50
2022-11-23T14:14:03.284Z,17.30
2022-11-23T14:18:25.714Z,17.10
2022-11-23T14:22:43.132Z,17.00
2022-11-23T14:26:50.920Z,16.90
2022-11-23T14:30:57.455Z,16.80
2022-11-23T14:35:24.585Z,16.70
2022-11-23T14:39:28.195Z,16.60
2022-11-23T14:43:33.566Z,16.40
2022-11-23T14:47:37.012Z,16.00
2022-11-23T14:51:45.261Z,15.40
2022-11-23T14:55:50.424Z,14.90
2022-11-23T15:00:00.347Z,14.70
2022-11-23T15:04:21.593Z,14.40
2022-11-23T15:08:30.422Z,14.20
2022-11-23T15:12:52.499Z,13.90
2022-11-23T15:16:56.100Z,13.70
2022-11-23T15:21:26.935Z,13.50
2022-11-23T15:25:32.070Z,13.30
2022-11-23T15:29:38.871Z,13.20
2022-11-23T15:33:50.760Z,12.90
2022-11-23T15:37:54.644Z,12.80
2022-11-23T15:41:58.110Z,12.60
2022-11-23T15:46:13.076Z,12.40
2022-11-23T15:50:16.817Z,12.20
2022-11-23T15:54:25.873Z,12.10
2022-11-23T15:58:30.319Z,11.90
2022-11-23T16:02:33.874Z,11.70
2022-11-23T16:06:40.115Z,11.60
2022-11-23T16:10:55.330Z,11.50
2022-11-23T16:15:22.867Z,11.30
2022-11-23T16:19:32.269Z,11.20
2022-11-23T16:23:56.778Z,11.10
2022-11-23T16:28:01.286Z,11.00
2022-11-23T16:32:08.120Z,11.00
2022-11-23T16:36:11.961Z,10.90
2022-11-23T16:40:15.943Z,10.80
2022-11-23T16:44:20.055Z,10.80
2022-11-23T16:48:26.210Z,10.70
2022-11-23T16:52:29.650Z,10.60
2022-11-23T16:56:33.155Z,10.50
2022-11-23T17:00:36.932Z,10.40
2022-11-23T17:04:40.736Z,10.20
2022-11-23T17:08:48.385Z,10.00
2022-11-23T17:12:56.307Z,9.80
2022-11-23T17:17:02.238Z,9.70
2022-11-23T17:21:06.074Z,9.70
2022-11-23T17:25:14.970Z,9.70
2022-11-23T17:29:20.404Z,9.50
2022-11-23T17:33:23.790Z,9.50
2022-11-23T17:37:27.472Z,9.50
2022-11-23T17:41:30.881Z,9.50
2022-11-23T17:45:34.872Z,9.60
2022-11-23T17:49:38.616Z,9.70
2022-11-23T17:53:41.995Z,9.70
2022-11-23T17:57:45.548Z,9.80
2022-11-23T18:01:49.310Z,9.80
2022-11-23T18:05:53.172Z,9.90
2022-11-23T18:09:56.739Z,10.00
2022-11-23T18:14:00.282Z,10.10
2022-11-23T18:18:05.034Z,10.20
2022-11-23T18:22:08.609Z,10.20
2022-11-23T18:26:16.885Z,10.30
2022-11-23T18:30:20.416Z,10.40
2022-11-23T18:34:25.482Z,10.50
2022-11-23T18:38:29.309Z,10.60
2022-11-23T18:42:32.778Z,10.60
2022-11-23T18:46:36.256Z,10.60
2022-11-23T18:50:40.276Z,10.70
2022-11-23T18:54:46.150Z,10.70
2022-11-23T18:58:51.681Z,10.70
2022-11-23T19:02:57.410Z,10.70
2022-11-23T19:07:00.928Z,10.70
2022-11-23T19:11:09.199Z,10.70
2022-11-23T19:15:13.377Z,10.70
2022-11-23T19:19:18.343Z,10.70
2022-11-23T19:23:23.549Z,10.70
2022-11-23T19:27:36.059Z,10.60
2022-11-23T19:31:40.021Z,10.60
2022-11-23T19:35:43.645Z,10.60
2022-11-23T19:39:47.415Z,10.60
2022-11-23T19:43:57.627Z,10.60
2022-11-23T19:48:01.085Z,10.50
2022-11-23T19:52:06.020Z,10.50
2022-11-23T19:56:20.666Z,10.50
2022-11-23T20:00:24.192Z,10.40
2022-11-23T20:04:29.329Z,10.30
2022-11-23T20:08:32.855Z,10.20
2022-11-23T20:12:36.418Z,10.20
2022-11-23T20:16:40.309Z,10.20
2022-11-23T20:20:50.254Z,10.10
2022-11-23T20:24:53.783Z,10.10
2022-11-23T20:28:58.804Z,10.10
2022-11-23T20:33:03.556Z,10.10
2022-11-23T20:37:08.963Z,10.20
2022-11-23T20:41:22.115Z,10.20
2022-11-23T20:45:31.224Z,10.20
2022-11-23T20:49:43.600Z,10.20
2022-11-23T20:53:51.742Z,10.20
2022-11-23T20:57:55.632Z,10.30
2022-11-23T21:01:59.128Z,10.30
2022-11-23T21:06:10.694Z,10.30
2022-11-23T21:10:34.290Z,10.40
2022-11-23T21:14:40.083Z,10.40
2022-11-23T21:18:45.282Z,10.50
2022-11-23T21:22:49.544Z,10.50
2022-11-23T21:26:53.860Z,10.50
2022-11-23T21:31:09.591Z,10.60
2022-11-23T21:35:14.968Z,10.70
2022-11-23T21:39:20.758Z,10.70
2022-11-23T21:43:26.313Z,10.70
2022-11-23T21:47:31.107Z,10.70
2022-11-23T21:51:36.692Z,10.70
2022-11-23T21:55:41.735Z,10.70
2022-11-23T21:59:49.910Z,10.70
2022-11-23T22:03:59.709Z,10.70
2022-11-23T22:08:28.227Z,10.70
2022-11-23T22:12:27.730Z,10.70
2022-11-23T22:16:35.173Z,10.80
2022-11-23T22:20:38.934Z,10.80
2022-11-23T22:24:42.526Z,10.90
2022-11-23T22:28:48.255Z,10.90
2022-11-23T22:32:51.794Z,11.00
2022-11-23T22:36:55.219Z,11.00
2022-11-23T22:41:07.493Z,10.90
2022-11-23T22:45:11.775Z,10.90
2022-11-23T22:49:16.113Z,10.90
2022-11-23T22:53:19.583Z,11.00
2022-11-23T22:57:23.022Z,10.90
2022-11-23T23:01:28.923Z,10.90
2022-11-23T23:05:33.013Z,11.00
2022-11-23T23:09:36.563Z,11.00
2022-11-23T23:13:40.445Z,10.90
2022-11-23T23:17:44.358Z,10.90
2022-11-23T23:21:47.826Z,10.90
2022-11-23T23:25:54.564Z,10.90
2022-11-23T23:29:59.932Z,10.80
2022-11-23T23:34:04.218Z,10.80
2022-11-23T23:38:08.267Z,10.80
2022-11-23T23:42:11.722Z,10.80
2022-11-23T23:46:15.606Z,10.80
2022-11-23T23:50:19.080Z,10.80
2022-11-23T23:54:22.574Z,10.80
2022-11-23T23:58:26.336Z,10.80
